sensor_id;sensor_type;location;lat;lon;timestamp;pressure;altitude;pressure_sealevel;temperature;humidity
44751;BME280;30477;48.224;11.470;2022-12-08T00:01:22;95596.19;;;2.03;72.28
44751;BME280;30477;48.224;11.470;2022-12-08T00:03:48;95579.78;;;2.08;72.09
44751;BME280;30477;48.224;11.470;2022-12-08T00:06:23;95584.88;;;2.20;72.41
44751;BME280;30477;48.224;11.470;2022-12-08T00:09:29;95585.19;;;2.16;72.23
44751;BME280;30477;48.224;11.470;2022-12-08T00:11:59;95586.31;;;2.12;72.15
44751;BME280;30477;48.224;11.470;2022-12-08T00:16:58;95587.25;;;2.11;72.76
44751;BME280;30477;48.224;11.470;2022-12-08T00:19:24;95580.09;;;2.16;72.54
44751;BME280;30477;48.224;11.470;2022-12-08T00:21:50;95571.31;;;2.20;72.46
44751;BME280;30477;48.224;11.470;2022-12-08T00:24:16;95567.03;;;2.20;72.61
44751;BME280;30477;48.224;11.470;2022-12-08T00:26:42;95567.25;;;2.17;72.64
44751;BME280;30477;48.224;11.470;2022-12-08T00:29:08;95566.44;;;2.17;72.76
44751;BME280;30477;48.224;11.470;2022-12-08T00:31:33;95569.88;;;2.16;72.85
44751;BME280;30477;48.224;11.470;2022-12-08T00:33:59;95573.78;;;2.09;72.40
44751;BME280;30477;48.224;11.470;2022-12-08T00:36:25;95568.84;;;2.06;72.72
44751;BME280;30477;48.224;11.470;2022-12-08T00:38:50;95569.78;;;2.05;72.45
44751;BME280;30477;48.224;11.470;2022-12-08T00:41:19;95559.16;;;2.11;72.48
44751;BME280;30477;48.224;11.470;2022-12-08T00:44:06;95559.66;;;2.16;72.53
44751;BME280;30477;48.224;11.470;2022-12-08T00:46:31;95556.22;;;2.17;72.47
44751;BME280;30477;48.224;11.470;2022-12-08T00:48:57;95554.69;;;2.14;72.54
44751;BME280;30477;48.224;11.470;2022-12-08T00:51:22;95548.56;;;2.04;72.43
44751;BME280;30477;48.224;11.470;2022-12-08T00:53:47;95556.09;;;2.06;72.59
44751;BME280;30477;48.224;11.470;2022-12-08T00:56:13;95548.09;;;1.97;72.71
44751;BME280;30477;48.224;11.470;2022-12-08T00:58:38;95544.56;;;2.00;73.09
44751;BME280;30477;48.224;11.470;2022-12-08T01:01:09;95549.47;;;2.16;72.87
44751;BME280;30477;48.224;11.470;2022-12-08T01:03:35;95540.19;;;2.15;72.96
44751;BME280;30477;48.224;11.470;2022-12-08T01:06:04;95549.28;;;2.19;72.73
44751;BME280;30477;48.224;11.470;2022-12-08T01:08:30;95552.53;;;2.08;72.61
44751;BME280;30477;48.224;11.470;2022-12-08T01:10:56;95557.09;;;2.03;72.95
44751;BME280;30477;48.224;11.470;2022-12-08T01:13:27;95557.09;;;2.03;72.86
44751;BME280;30477;48.224;11.470;2022-12-08T01:15:52;95552.81;;;2.03;72.92
44751;BME280;30477;48.224;11.470;2022-12-08T01:18:17;95557.81;;;2.05;72.88
44751;BME280;30477;48.224;11.470;2022-12-08T01:20:43;95549.97;;;2.08;72.94
44751;BME280;30477;48.224;11.470;2022-12-08T01:23:08;95549.47;;;2.16;72.80
44751;BME280;30477;48.224;11.470;2022-12-08T01:25:33;95553.34;;;2.09;72.74
44751;BME280;30477;48.224;11.470;2022-12-08T01:27:59;95554.88;;;2.11;72.85
44751;BME280;30477;48.224;11.470;2022-12-08T01:30:24;95555.91;;;2.09;72.72
44751;BME280;30477;48.224;11.470;2022-12-08T01:32:50;95549.84;;;2.10;72.70
44751;BME280;30477;48.224;11.470;2022-12-08T01:35:15;95554.78;;;2.13;72.86
44751;BME280;30477;48.224;11.470;2022-12-08T01:37:40;95545.06;;;2.18;72.69
44751;BME280;30477;48.224;11.470;2022-12-08T01:40:06;95543.94;;;2.22;72.95
44751;BME280;30477;48.224;11.470;2022-12-08T01:42:32;95546.50;;;2.22;72.56
44751;BME280;30477;48.224;11.470;2022-12-08T01:45:02;95544.56;;;2.13;72.33
44751;BME280;30477;48.224;11.470;2022-12-08T01:47:36;95539.56;;;2.11;72.70
44751;BME280;30477;48.224;11.470;2022-12-08T01:50:06;95535.38;;;2.10;72.68
44751;BME280;30477;48.224;11.470;2022-12-08T01:52:39;95541.69;;;2.05;72.76
44751;BME280;30477;48.224;11.470;2022-12-08T01:55:11;95527.81;;;2.09;72.93
44751;BME280;30477;48.224;11.470;2022-12-08T01:57:44;95532.00;;;2.10;72.71
44751;BME280;30477;48.224;11.470;2022-12-08T02:00:14;95517.38;;;1.99;72.41
44751;BME280;30477;48.224;11.470;2022-12-08T02:02:56;95523.31;;;1.99;72.90
44751;BME280;30477;48.224;11.470;2022-12-08T02:05:25;95519.22;;;1.97;72.94
44751;BME280;30477;48.224;11.470;2022-12-08T02:07:51;95517.47;;;1.97;73.14
44751;BME280;30477;48.224;11.470;2022-12-08T02:10:20;95518.41;;;1.96;73.03
44751;BME280;30477;48.224;11.470;2022-12-08T02:12:47;95514.72;;;1.88;73.09
44751;BME280;30477;48.224;11.470;2022-12-08T02:15:14;95515.94;;;1.82;73.17
44751;BME280;30477;48.224;11.470;2022-12-08T02:28:46;95497.38;;;1.93;73.26
44751;BME280;30477;48.224;11.470;2022-12-08T02:31:35;95495.84;;;1.90;73.61
44751;BME280;30477;48.224;11.470;2022-12-08T02:34:14;95491.78;;;1.88;73.72
44751;BME280;30477;48.224;11.470;2022-12-08T02:42:20;95489.41;;;1.97;73.62
44751;BME280;30477;48.224;11.470;2022-12-08T02:45:17;95483.72;;;1.94;73.65
44751;BME280;30477;48.224;11.470;2022-12-08T02:47:45;95488.72;;;1.95;73.68
44751;BME280;30477;48.224;11.470;2022-12-08T02:50:11;95485.94;;;1.98;73.54
44751;BME280;30477;48.224;11.470;2022-12-08T02:52:39;95479.00;;;2.00;73.23
44751;BME280;30477;48.224;11.470;2022-12-08T02:55:09;95474.94;;;1.98;73.44
44751;BME280;30477;48.224;11.470;2022-12-08T03:00:15;95469.13;;;1.83;73.12
44751;BME280;30477;48.224;11.470;2022-12-08T03:05:28;95468.81;;;1.75;73.30
44751;BME280;30477;48.224;11.470;2022-12-08T03:08:03;95468.09;;;1.86;73.56
44751;BME280;30477;48.224;11.470;2022-12-08T03:11:00;95463.28;;;1.81;73.43
44751;BME280;30477;48.224;11.470;2022-12-08T03:13:34;95470.41;;;1.76;73.47
44751;BME280;30477;48.224;11.470;2022-12-08T03:16:05;95463.88;;;1.72;73.38
44751;BME280;30477;48.224;11.470;2022-12-08T03:18:35;95465.28;;;1.50;73.62
44751;BME280;30477;48.224;11.470;2022-12-08T03:21:02;95456.13;;;1.60;73.96
44751;BME280;30477;48.224;11.470;2022-12-08T03:23:29;95459.81;;;1.69;73.86
44751;BME280;30477;48.224;11.470;2022-12-08T03:26:03;95456.44;;;1.69;73.88
44751;BME280;30477;48.224;11.470;2022-12-08T03:28:32;95449.81;;;1.79;74.03
44751;BME280;30477;48.224;11.470;2022-12-08T03:31:01;95456.03;;;1.75;73.56
44751;BME280;30477;48.224;11.470;2022-12-08T03:33:32;95450.09;;;1.61;73.45
44751;BME280;30477;48.224;11.470;2022-12-08T03:36:00;95451.22;;;1.57;74.07
44751;BME280;30477;48.224;11.470;2022-12-08T03:38:42;95454.28;;;1.62;73.92
44751;BME280;30477;48.224;11.470;2022-12-08T03:41:08;95448.97;;;1.66;73.74
44751;BME280;30477;48.224;11.470;2022-12-08T03:43:46;95453.03;;;1.55;73.78
44751;BME280;30477;48.224;11.470;2022-12-08T03:46:13;95447.13;;;1.68;74.27
44751;BME280;30477;48.224;11.470;2022-12-08T03:48:38;95440.59;;;1.76;74.30
44751;BME280;30477;48.224;11.470;2022-12-08T03:51:04;95442.16;;;1.79;73.88
44751;BME280;30477;48.224;11.470;2022-12-08T03:53:29;95453.69;;;1.72;73.79
44751;BME280;30477;48.224;11.470;2022-12-08T03:55:54;95443.69;;;1.81;73.97
44751;BME280;30477;48.224;11.470;2022-12-08T03:58:20;95440.91;;;1.72;73.75
44751;BME280;30477;48.224;11.470;2022-12-08T04:00:45;95433.47;;;1.69;74.08
44751;BME280;30477;48.224;11.470;2022-12-08T04:03:10;95437.34;;;1.61;73.95
44751;BME280;30477;48.224;11.470;2022-12-08T04:05:36;95440.81;;;1.60;74.20
44751;BME280;30477;48.224;11.470;2022-12-08T04:08:01;95442.03;;;1.68;74.24
44751;BME280;30477;48.224;11.470;2022-12-08T04:10:26;95436.44;;;1.75;74.16
44751;BME280;30477;48.224;11.470;2022-12-08T04:12:52;95420.00;;;1.79;73.92
44751;BME280;30477;48.224;11.470;2022-12-08T04:15:17;95434.50;;;1.79;74.04
44751;BME280;30477;48.224;11.470;2022-12-08T04:17:42;95428.69;;;1.77;73.92
44751;BME280;30477;48.224;11.470;2022-12-08T04:20:08;95439.81;;;1.76;74.21
44751;BME280;30477;48.224;11.470;2022-12-08T04:22:33;95436.94;;;1.68;74.07
44751;BME280;30477;48.224;11.470;2022-12-08T04:24:58;95436.75;;;1.71;74.14
44751;BME280;30477;48.224;11.470;2022-12-08T04:27:24;95433.09;;;1.75;74.16
44751;BME280;30477;48.224;11.470;2022-12-08T04:29:49;95431.66;;;1.71;74.20
44751;BME280;30477;48.224;11.470;2022-12-08T04:32:14;95433.47;;;1.81;74.11
44751;BME280;30477;48.224;11.470;2022-12-08T04:34:40;95422.88;;;1.75;74.22
44751;BME280;30477;48.224;11.470;2022-12-08T04:37:05;95428.88;;;1.74;74.25
44751;BME280;30477;48.224;11.470;2022-12-08T04:39:30;95425.44;;;1.75;74.16
44751;BME280;30477;48.224;11.470;2022-12-08T04:41:56;95427.75;;;1.78;74.33
44751;BME280;30477;48.224;11.470;2022-12-08T04:44:21;95417.38;;;1.81;74.22
44751;BME280;30477;48.224;11.470;2022-12-08T04:46:46;95426.03;;;1.78;74.20
44751;BME280;30477;48.224;11.470;2022-12-08T04:49:12;95418.19;;;1.69;74.24
44751;BME280;30477;48.224;11.470;2022-12-08T04:51:37;95410.63;;;1.80;74.65
44751;BME280;30477;48.224;11.470;2022-12-08T04:54:02;95411.34;;;1.82;74.30
44751;BME280;30477;48.224;11.470;2022-12-08T04:56:28;95404.06;;;1.89;74.49
44751;BME280;30477;48.224;11.470;2022-12-08T04:58:53;95409.59;;;1.95;74.31
44751;BME280;30477;48.224;11.470;2022-12-08T05:01:18;95417.25;;;1.82;74.16
44751;BME280;30477;48.224;11.470;2022-12-08T05:03:44;95418.97;;;1.82;74.08
44751;BME280;30477;48.224;11.470;2022-12-08T05:06:12;95418.66;;;1.87;74.44
44751;BME280;30477;48.224;11.470;2022-12-08T05:08:37;95416.25;;;1.72;73.97
44751;BME280;30477;48.224;11.470;2022-12-08T05:11:05;95413.06;;;1.69;74.41
44751;BME280;30477;48.224;11.470;2022-12-08T05:13:31;95415.31;;;1.73;74.50
44751;BME280;30477;48.224;11.470;2022-12-08T05:16:07;95421.84;;;1.77;74.57
44751;BME280;30477;48.224;11.470;2022-12-08T05:18:33;95415.09;;;1.76;74.70
44751;BME280;30477;48.224;11.470;2022-12-08T05:20:58;95403.69;;;1.82;74.71
44751;BME280;30477;48.224;11.470;2022-12-08T05:23:24;95411.66;;;1.77;74.53
44751;BME280;30477;48.224;11.470;2022-12-08T05:25:50;95420.19;;;1.76;74.77
44751;BME280;30477;48.224;11.470;2022-12-08T05:28:15;95422.56;;;1.67;74.71
44751;BME280;30477;48.224;11.470;2022-12-08T05:30:40;95417.66;;;1.63;74.75
44751;BME280;30477;48.224;11.470;2022-12-08T05:33:06;95402.66;;;1.72;75.17
44751;BME280;30477;48.224;11.470;2022-12-08T05:35:31;95399.38;;;1.70;74.90
44751;BME280;30477;48.224;11.470;2022-12-08T05:37:56;95393.47;;;1.82;75.07
44751;BME280;30477;48.224;11.470;2022-12-08T05:40:22;95399.09;;;1.87;75.16
44751;BME280;30477;48.224;11.470;2022-12-08T05:42:47;95391.94;;;1.92;75.13
44751;BME280;30477;48.224;11.470;2022-12-08T05:45:12;95390.72;;;1.98;74.73
44751;BME280;30477;48.224;11.470;2022-12-08T05:47:38;95394.16;;;1.97;74.61
44751;BME280;30477;48.224;11.470;2022-12-08T05:50:04;95392.97;;;1.90;74.55
44751;BME280;30477;48.224;11.470;2022-12-08T05:52:30;95396.63;;;1.86;74.65
44751;BME280;30477;48.224;11.470;2022-12-08T05:54:56;95404.91;;;1.89;74.78
44751;BME280;30477;48.224;11.470;2022-12-08T05:57:21;95395.63;;;1.88;74.69
44751;BME280;30477;48.224;11.470;2022-12-08T05:59:46;95397.75;;;1.81;74.87
44751;BME280;30477;48.224;11.470;2022-12-08T06:02:12;95391.94;;;1.79;74.81
44751;BME280;30477;48.224;11.470;2022-12-08T06:04:37;95386.75;;;1.81;74.67
44751;BME280;30477;48.224;11.470;2022-12-08T06:07:02;95396.97;;;1.68;74.57
44751;BME280;30477;48.224;11.470;2022-12-08T06:09:28;95394.59;;;1.78;74.97
44751;BME280;30477;48.224;11.470;2022-12-08T06:11:53;95393.88;;;1.76;74.82
44751;BME280;30477;48.224;11.470;2022-12-08T06:14:18;95388.47;;;1.68;75.05
44751;BME280;30477;48.224;11.470;2022-12-08T06:16:43;95396.53;;;1.49;75.06
44751;BME280;30477;48.224;11.470;2022-12-08T06:19:09;95395.41;;;1.53;75.21
44751;BME280;30477;48.224;11.470;2022-12-08T06:21:34;95403.47;;;1.59;75.22
44751;BME280;30477;48.224;11.470;2022-12-08T06:23:59;95392.97;;;1.64;75.34
44751;BME280;30477;48.224;11.470;2022-12-08T06:26:25;95395.94;;;1.71;75.12
44751;BME280;30477;48.224;11.470;2022-12-08T06:28:51;95396.34;;;1.77;75.42
44751;BME280;30477;48.224;11.470;2022-12-08T06:31:21;95399.19;;;1.60;74.87
44751;BME280;30477;48.224;11.470;2022-12-08T06:33:47;95398.38;;;1.59;75.26
44751;BME280;30477;48.224;11.470;2022-12-08T06:36:15;95399.78;;;1.63;75.10
44751;BME280;30477;48.224;11.470;2022-12-08T06:38:40;95390.03;;;1.70;75.37
44751;BME280;30477;48.224;11.470;2022-12-08T06:41:06;95394.28;;;1.70;75.22
44751;BME280;30477;48.224;11.470;2022-12-08T06:43:32;95390.31;;;1.66;75.06
44751;BME280;30477;48.224;11.470;2022-12-08T06:45:58;95383.91;;;1.60;74.86
44751;BME280;30477;48.224;11.470;2022-12-08T06:48:23;95393.25;;;1.59;75.25
44751;BME280;30477;48.224;11.470;2022-12-08T06:50:49;95382.88;;;1.62;75.09
44751;BME280;30477;48.224;11.470;2022-12-08T06:53:15;95382.38;;;1.70;75.13
44751;BME280;30477;48.224;11.470;2022-12-08T06:55:44;95393.56;;;1.68;74.94
44751;BME280;30477;48.224;11.470;2022-12-08T06:58:11;95401.63;;;1.61;74.93
44751;BME280;30477;48.224;11.470;2022-12-08T07:00:37;95389.19;;;1.57;75.08
44751;BME280;30477;48.224;11.470;2022-12-08T07:03:03;95393.47;;;1.56;74.99
44751;BME280;30477;48.224;11.470;2022-12-08T07:05:28;95395.53;;;1.51;75.29
44751;BME280;30477;48.224;11.470;2022-12-08T07:07:53;95390.00;;;1.57;75.04
44751;BME280;30477;48.224;11.470;2022-12-08T07:10:19;95393.16;;;1.61;75.39
44751;BME280;30477;48.224;11.470;2022-12-08T07:12:44;95396.94;;;1.55;74.99
44751;BME280;30477;48.224;11.470;2022-12-08T07:15:09;95398.38;;;1.59;75.17
44751;BME280;30477;48.224;11.470;2022-12-08T07:17:35;95396.53;;;1.61;74.95
44751;BME280;30477;48.224;11.470;2022-12-08T07:20:00;95390.44;;;1.64;75.04
44751;BME280;30477;48.224;11.470;2022-12-08T07:22:25;95387.97;;;1.62;75.20
44751;BME280;30477;48.224;11.470;2022-12-08T07:24:51;95396.53;;;1.61;75.13
44751;BME280;30477;48.224;11.470;2022-12-08T07:27:16;95396.34;;;1.65;75.31
44751;BME280;30477;48.224;11.470;2022-12-08T07:29:41;95406.44;;;1.66;75.01
44751;BME280;30477;48.224;11.470;2022-12-08T07:32:07;95416.53;;;1.68;75.09
44751;BME280;30477;48.224;11.470;2022-12-08T07:34:32;95411.13;;;1.59;74.80
44751;BME280;30477;48.224;11.470;2022-12-08T07:36:58;95408.88;;;1.68;75.31
44751;BME280;30477;48.224;11.470;2022-12-08T07:39:23;95408.16;;;1.66;75.14
44751;BME280;30477;48.224;11.470;2022-12-08T07:41:48;95404.72;;;1.54;75.07
44751;BME280;30477;48.224;11.470;2022-12-08T07:44:14;95404.09;;;1.63;75.42
44751;BME280;30477;48.224;11.470;2022-12-08T07:46:40;95401.03;;;1.71;75.39
44751;BME280;30477;48.224;11.470;2022-12-08T07:49:05;95395.41;;;1.78;75.39
44751;BME280;30477;48.224;11.470;2022-12-08T07:51:30;95407.97;;;1.81;75.23
44751;BME280;30477;48.224;11.470;2022-12-08T07:53:56;95406.34;;;1.93;75.51
44751;BME280;30477;48.224;11.470;2022-12-08T07:56:21;95406.84;;;1.98;75.46
44751;BME280;30477;48.224;11.470;2022-12-08T07:58:47;95410.00;;;2.02;75.22
44751;BME280;30477;48.224;11.470;2022-12-08T08:01:26;95408.75;;;2.08;75.40
44751;BME280;30477;48.224;11.470;2022-12-08T08:03:54;95412.16;;;2.08;75.37
44751;BME280;30477;48.224;11.470;2022-12-08T08:06:19;95413.44;;;2.14;75.31
44751;BME280;30477;48.224;11.470;2022-12-08T08:08:44;95407.44;;;2.15;75.15
44751;BME280;30477;48.224;11.470;2022-12-08T08:11:10;95402.81;;;2.20;75.18
44751;BME280;30477;48.224;11.470;2022-12-08T08:13:35;95410.38;;;2.21;74.93
44751;BME280;30477;48.224;11.470;2022-12-08T08:16:09;95407.91;;;2.20;74.73
44751;BME280;30477;48.224;11.470;2022-12-08T08:18:36;95404.88;;;2.15;74.98
44751;BME280;30477;48.224;11.470;2022-12-08T08:21:05;95401.19;;;2.19;75.04
44751;BME280;30477;48.224;11.470;2022-12-08T08:23:31;95391.69;;;2.21;74.87
44751;BME280;30477;48.224;11.470;2022-12-08T08:26:00;95401.19;;;2.19;74.74
44751;BME280;30477;48.224;11.470;2022-12-08T08:28:26;95397.28;;;2.26;74.87
44751;BME280;30477;48.224;11.470;2022-12-08T08:30:52;95412.00;;;2.22;74.47
44751;BME280;30477;48.224;11.470;2022-12-08T08:33:17;95404.47;;;2.21;74.68
44751;BME280;30477;48.224;11.470;2022-12-08T08:35:42;95403.09;;;2.28;74.84
44751;BME280;30477;48.224;11.470;2022-12-08T08:38:07;95398.72;;;2.30;74.43
44751;BME280;30477;48.224;11.470;2022-12-08T08:40:33;95406.88;;;2.35;74.60
44751;BME280;30477;48.224;11.470;2022-12-08T08:43:00;95397.88;;;2.42;74.61
44751;BME280;30477;48.224;11.470;2022-12-08T08:45:25;95397.63;;;2.46;74.43
44751;BME280;30477;48.224;11.470;2022-12-08T08:47:50;95396.72;;;2.47;74.34
44751;BME280;30477;48.224;11.470;2022-12-08T08:50:15;95401.03;;;2.46;74.26
44751;BME280;30477;48.224;11.470;2022-12-08T08:52:41;95403.59;;;2.46;74.64
44751;BME280;30477;48.224;11.470;2022-12-08T08:55:06;95405.09;;;2.49;74.16
44751;BME280;30477;48.224;11.470;2022-12-08T08:57:32;95398.25;;;2.49;74.20
44751;BME280;30477;48.224;11.470;2022-12-08T08:59:57;95398.53;;;2.57;74.13
44751;BME280;30477;48.224;11.470;2022-12-08T09:02:22;95404.03;;;2.64;74.08
44751;BME280;30477;48.224;11.470;2022-12-08T09:04:48;95400.34;;;2.68;73.78
44751;BME280;30477;48.224;11.470;2022-12-08T09:07:13;95405.09;;;2.73;73.73
44751;BME280;30477;48.224;11.470;2022-12-08T09:09:39;95404.81;;;2.77;73.64
44751;BME280;30477;48.224;11.470;2022-12-08T09:12:05;95401.53;;;2.75;73.50
44751;BME280;30477;48.224;11.470;2022-12-08T09:14:30;95399.09;;;2.74;73.63
44751;BME280;30477;48.224;11.470;2022-12-08T09:16:56;95406.75;;;2.74;73.54
44751;BME280;30477;48.224;11.470;2022-12-08T09:19:21;95401.53;;;2.75;73.68
44751;BME280;30477;48.224;11.470;2022-12-08T09:21:47;95401.94;;;2.82;73.62
44751;BME280;30477;48.224;11.470;2022-12-08T09:24:12;95399.13;;;2.85;73.33
44751;BME280;30477;48.224;11.470;2022-12-08T09:26:41;95392.28;;;2.85;73.34
44751;BME280;30477;48.224;11.470;2022-12-08T09:29:08;95395.66;;;2.86;73.36
44751;BME280;30477;48.224;11.470;2022-12-08T09:31:33;95396.47;;;2.87;73.34
44751;BME280;30477;48.224;11.470;2022-12-08T09:33:59;95395.72;;;2.97;73.18
44751;BME280;30477;48.224;11.470;2022-12-08T09:36:24;95388.28;;;2.94;73.12
44751;BME280;30477;48.224;11.470;2022-12-08T09:38:50;95382.47;;;2.92;72.71
44751;BME280;30477;48.224;11.470;2022-12-08T09:41:41;95379.56;;;2.97;72.89
44751;BME280;30477;48.224;11.470;2022-12-08T09:46:51;95373.56;;;3.09;72.73
44751;BME280;30477;48.224;11.470;2022-12-08T09:49:20;95365.47;;;3.15;72.64
44751;BME280;30477;48.224;11.470;2022-12-08T09:51:47;95362.66;;;3.18;72.35
44751;BME280;30477;48.224;11.470;2022-12-08T09:54:21;95362.75;;;3.17;72.41
44751;BME280;30477;48.224;11.470;2022-12-08T09:56:52;95360.72;;;3.22;72.07
44751;BME280;30477;48.224;11.470;2022-12-08T09:59:28;95358.06;;;3.35;71.90
44751;BME280;30477;48.224;11.470;2022-12-08T10:01:54;95358.75;;;3.37;71.61
44751;BME280;30477;48.224;11.470;2022-12-08T10:07:01;95347.28;;;3.42;71.83
44751;BME280;30477;48.224;11.470;2022-12-08T10:09:42;95337.34;;;3.38;71.43
44751;BME280;30477;48.224;11.470;2022-12-08T10:12:21;95339.47;;;3.44;71.67
44751;BME280;30477;48.224;11.470;2022-12-08T10:14:56;95337.16;;;3.52;71.44
44751;BME280;30477;48.224;11.470;2022-12-08T10:17:46;95339.59;;;3.54;71.36
44751;BME280;30477;48.224;11.470;2022-12-08T10:20:39;95334.84;;;3.60;71.34
44751;BME280;30477;48.224;11.470;2022-12-08T10:25:43;95321.34;;;3.58;70.87
44751;BME280;30477;48.224;11.470;2022-12-08T10:28:09;95319.84;;;3.56;71.23
44751;BME280;30477;48.224;11.470;2022-12-08T10:30:35;95316.72;;;3.63;71.37
44751;BME280;30477;48.224;11.470;2022-12-08T10:33:00;95314.25;;;3.73;71.28
44751;BME280;30477;48.224;11.470;2022-12-08T10:35:45;95318.31;;;3.76;71.02
44751;BME280;30477;48.224;11.470;2022-12-08T10:38:28;95307.97;;;3.77;71.00
44751;BME280;30477;48.224;11.470;2022-12-08T10:41:00;95303.66;;;3.78;71.09
44751;BME280;30477;48.224;11.470;2022-12-08T10:43:28;95304.59;;;3.77;70.83
44751;BME280;30477;48.224;11.470;2022-12-08T10:45:53;95295.28;;;3.76;70.82
44751;BME280;30477;48.224;11.470;2022-12-08T10:48:23;95296.19;;;3.86;71.06
44751;BME280;30477;48.224;11.470;2022-12-08T10:50:57;95297.25;;;3.95;70.71
44751;BME280;30477;48.224;11.470;2022-12-08T10:53:26;95295.63;;;3.94;70.80
44751;BME280;30477;48.224;11.470;2022-12-08T10:55:52;95292.69;;;3.98;70.64
44751;BME280;30477;48.224;11.470;2022-12-08T10:58:32;95287.59;;;3.98;70.45
44751;BME280;30477;48.224;11.470;2022-12-08T11:01:12;95284.00;;;3.90;70.17
44751;BME280;30477;48.224;11.470;2022-12-08T11:03:45;95279.19;;;3.96;70.16
44751;BME280;30477;48.224;11.470;2022-12-08T11:06:18;95278.72;;;4.02;70.23
44751;BME280;30477;48.224;11.470;2022-12-08T11:08:51;95280.38;;;4.03;70.00
44751;BME280;30477;48.224;11.470;2022-12-08T11:11:19;95278.03;;;4.12;70.28
44751;BME280;30477;48.224;11.470;2022-12-08T11:13:47;95275.72;;;3.97;69.79
44751;BME280;30477;48.224;11.470;2022-12-08T11:16:15;95265.22;;;4.00;70.09
44751;BME280;30477;48.224;11.470;2022-12-08T11:18:43;95263.28;;;3.93;70.11
44751;BME280;30477;48.224;11.470;2022-12-08T11:21:13;95268.97;;;3.96;69.83
44751;BME280;30477;48.224;11.470;2022-12-08T11:23:41;95264.78;;;3.95;70.00
44751;BME280;30477;48.224;11.470;2022-12-08T11:28:39;95252.09;;;3.94;70.18
44751;BME280;30477;48.224;11.470;2022-12-08T11:31:20;95246.88;;;3.95;69.93
44751;BME280;30477;48.224;11.470;2022-12-08T11:33:47;95254.06;;;3.90;69.80
44751;BME280;30477;48.224;11.470;2022-12-08T11:36:15;95257.34;;;3.92;69.99
44751;BME280;30477;48.224;11.470;2022-12-08T11:38:45;95254.56;;;3.95;70.00
44751;BME280;30477;48.224;11.470;2022-12-08T11:41:20;95246.41;;;4.01;70.02
44751;BME280;30477;48.224;11.470;2022-12-08T11:44:09;95242.09;;;4.02;69.72
44751;BME280;30477;48.224;11.470;2022-12-08T11:46:46;95238.94;;;4.10;70.02
44751;BME280;30477;48.224;11.470;2022-12-08T11:49:15;95238.66;;;4.13;70.00
44751;BME280;30477;48.224;11.470;2022-12-08T11:52:46;95242.19;;;4.12;69.50
44751;BME280;30477;48.224;11.470;2022-12-08T11:54:50;95236.16;;;3.90;69.67
44751;BME280;30477;48.224;11.470;2022-12-08T11:57:20;95229.88;;;3.94;69.79
44751;BME280;30477;48.224;11.470;2022-12-08T11:59:53;95235.91;;;4.04;69.98
44751;BME280;30477;48.224;11.470;2022-12-08T12:02:21;95228.16;;;4.16;70.13
44751;BME280;30477;48.224;11.470;2022-12-08T12:04:53;95225.19;;;4.11;69.79
44751;BME280;30477;48.224;11.470;2022-12-08T12:18:47;95214.81;;;4.12;69.58
44751;BME280;30477;48.224;11.470;2022-12-08T12:21:35;95208.19;;;4.10;69.73
44751;BME280;30477;48.224;11.470;2022-12-08T12:24:05;95214.28;;;3.97;69.27
44751;BME280;30477;48.224;11.470;2022-12-08T12:26:34;95217.53;;;3.99;69.92
44751;BME280;30477;48.224;11.470;2022-12-08T12:29:09;95217.94;;;4.16;69.32
44751;BME280;30477;48.224;11.470;2022-12-08T12:31:41;95211.44;;;4.12;69.38
44751;BME280;30477;48.224;11.470;2022-12-08T12:34:16;95203.56;;;4.03;69.49
44751;BME280;30477;48.224;11.470;2022-12-08T12:36:49;95206.13;;;3.92;69.68
44751;BME280;30477;48.224;11.470;2022-12-08T12:39:19;95205.16;;;4.04;69.92
44751;BME280;30477;48.224;11.470;2022-12-08T12:54:29;95195.75;;;4.37;69.01
44751;BME280;30477;48.224;11.470;2022-12-08T13:02:29;95192.28;;;4.27;69.11
44751;BME280;30477;48.224;11.470;2022-12-08T13:07:48;95187.69;;;4.42;68.84
44751;BME280;30477;48.224;11.470;2022-12-08T13:10:16;95186.63;;;4.44;68.66
44751;BME280;30477;48.224;11.470;2022-12-08T13:12:44;95181.59;;;4.43;68.41
44751;BME280;30477;48.224;11.470;2022-12-08T13:15:18;95186.72;;;4.43;68.52
44751;BME280;30477;48.224;11.470;2022-12-08T13:17:45;95185.25;;;4.40;68.11
44751;BME280;30477;48.224;11.470;2022-12-08T13:20:19;95171.88;;;4.37;68.28
44751;BME280;30477;48.224;11.470;2022-12-08T13:23:10;95179.00;;;4.33;68.36
44751;BME280;30477;48.224;11.470;2022-12-08T13:33:11;95168.97;;;4.30;68.43
44751;BME280;30477;48.224;11.470;2022-12-08T13:35:43;95170.47;;;4.12;68.75
44751;BME280;30477;48.224;11.470;2022-12-08T13:38:15;95170.97;;;4.05;68.94
44751;BME280;30477;48.224;11.470;2022-12-08T13:40:42;95174.75;;;4.11;68.83
44751;BME280;30477;48.224;11.470;2022-12-08T13:45:43;95172.34;;;4.10;69.06
44751;BME280;30477;48.224;11.470;2022-12-08T13:48:29;95169.59;;;4.01;69.30
44751;BME280;30477;48.224;11.470;2022-12-08T13:51:10;95162.81;;;4.00;69.35
44751;BME280;30477;48.224;11.470;2022-12-08T13:53:39;95164.19;;;4.04;69.48
44751;BME280;30477;48.224;11.470;2022-12-08T13:56:06;95168.19;;;3.97;69.38
44751;BME280;30477;48.224;11.470;2022-12-08T13:58:36;95162.81;;;4.00;69.67
44751;BME280;30477;48.224;11.470;2022-12-08T14:01:19;95169.59;;;4.01;69.74
44751;BME280;30477;48.224;11.470;2022-12-08T14:06:21;95169.59;;;4.01;69.59
44751;BME280;30477;48.224;11.470;2022-12-08T14:08:55;95176.56;;;3.99;69.22
44751;BME280;30477;48.224;11.470;2022-12-08T14:11:28;95170.75;;;3.97;69.36
44751;BME280;30477;48.224;11.470;2022-12-08T14:14:00;95172.84;;;3.92;69.19
44751;BME280;30477;48.224;11.470;2022-12-08T14:16:38;95174.50;;;3.93;69.36
44751;BME280;30477;48.224;11.470;2022-12-08T14:19:22;95181.47;;;3.91;69.27
44751;BME280;30477;48.224;11.470;2022-12-08T14:24:24;95181.50;;;3.80;69.63
44751;BME280;30477;48.224;11.470;2022-12-08T14:26:52;95185.59;;;3.82;69.51
44751;BME280;30477;48.224;11.470;2022-12-08T14:29:39;95184.06;;;3.80;69.91
44751;BME280;30477;48.224;11.470;2022-12-08T14:34:51;95178.97;;;3.69;69.93